Skip to main content.
 TIME   TEMPERATURE   WINDSPEED   DIRECTION   HUMIDITY   BAROMETER   RAINFALL 
5:51 18.0°C (64.4°F) 11.1 kmh (6.9 mph) NE 82% 1027.1hPa (30.33 inHg) 5.0mm (0.20 in.)
4:51 18.0°C (64.4 °F) 9.3 kmh (5.8 mph) N 77% 1027.1hPa (30.33 inHg) 5.0mm (0.20 in.)
3:51 18.0°C (64.4 °F) 5.6 kmh (3.5 mph) NE 82% 1027.1hPa (30.33 inHg) 5.0mm (0.20 in.)
2:51 18.0°C (64.4 °F) 9.3 kmh (5.8 mph) ENE 82% 1028.1hPa (30.36 inHg) 5.0mm (0.20 in.)
1:51 18.0°C (64.4 °F) 9.3 kmh (5.8 mph) E 82% 1028.1hPa (30.36 inHg) 5.0mm (0.20 in.)
0:51 18.0°C (64.4 °F) 11.1 kmh (6.9 mph) ENE 82% 1028.1hPa (30.36 inHg) 5.0mm (0.20 in.)
23:50 18.0°C (64.4 °F) 9.3 kmh (5.8 mph) ENE 82% 1028.1hPa (30.36 inHg) 5.0mm (0.20 in.)
22:50 19.0°C (66.2 °F) 9.3 kmh (5.8 mph) ENE 77% 1028.1hPa (30.36 inHg) 5.0mm (0.20 in.)
21:50 19.0°C (66.2 °F) 9.3 kmh (5.8 mph) E 77% 1027.1hPa (30.33 inHg) 5.0mm (0.20 in.)
20:50 19.0°C (66.2 °F) 9.3 kmh (5.8 mph) E 77% 1027.1hPa (30.33 inHg) 5.0mm (0.20 in.)
19:50 20.0°C (68.0 °F) 11.1 kmh (6.9 mph) E 77% 1027.1hPa (30.33 inHg) 5.0mm (0.20 in.)
18:50 20.0°C (68.0 °F) 11.1 kmh (6.9 mph) E 82% 1026.1hPa (30.30 inHg) 5.0mm (0.20 in.)
17:50 21.0°C (69.8 °F) 18.5 kmh (11.5 mph) E 73% 1026.1hPa (30.30 inHg) 5.0mm (0.20 in.)
16:50 21.0°C (69.8 °F) 16.7 kmh (10.4 mph) E 68% 1026.1hPa (30.30 inHg) 0.0mm (0.00 in.)
15:50 22.0°C (71.6 °F) 16.7 kmh (10.4 mph) E 64% 1026.1hPa (30.30 inHg) 0.0mm (0.00 in.)
14:50 22.0°C (71.6 °F) 22.2 kmh (13.8 mph) E 64% 1026.1hPa (30.30 inHg) 0.0mm (0.00 in.)
13:50 22.0°C (71.6 °F) 18.5 kmh (11.5 mph) E 68% 1026.1hPa (30.30 inHg) 0.0mm (0.00 in.)
12:50 21.0°C (69.8 °F) 18.5 kmh (11.5 mph) E 68% 1027.1hPa (30.33 inHg) 0.0mm (0.00 in.)
11:50 21.0°C (69.8 °F) 20.4 kmh (12.7 mph) E 68% 1027.1hPa (30.33 inHg) 0.0mm (0.00 in.)
10:50 21.0°C (69.8 °F) 18.5 kmh (11.5 mph) E 73% 1026.1hPa (30.30 inHg) 0.0mm (0.00 in.)
9:50 20.0°C (68.0 °F) 14.8 kmh (9.2 mph) E 72% 1026.1hPa (30.30 inHg) 0.0mm (0.00 in.)
8:50 18.0°C (64.4 °F) 11.1 kmh (6.9 mph) ENE 82% 1025.1hPa (30.27 inHg) 0.0mm (0.00 in.)
7:50 17.0°C (62.6 °F) 11.1 kmh (6.9 mph) ENE 82% 1025.1hPa (30.27 inHg) 0.0mm (0.00 in.)
6:50 17.0°C (62.6 °F) 9.3 kmh (5.8 mph) E 88% 1024.0hPa (30.24 inHg) 0.0mm (0.00 in.)